Time;durP1;ratioP1;P1;durP2;ratioP2;P2;SDS_P1;SDS_P2;PMS_P1;PMS_P2;Temp;Humidity;BMP_temperature;BMP_pressure;BME280_temperature;BME280_humidity;BME280_pressure;Samples;Min_cycle;Max_cycle;Signal;HPM_P1;HPM_P2
2024/04/12 00:01:12;;;;;;;2.43;1.70;;;15.60;99.90;;;;;;6525549;22;21036;-66
2024/04/12 00:03:48;;;;;;;4.00;2.23;;;15.60;99.90;;;;;;6525453;21;20484;-66
2024/04/12 00:06:15;;;;;;;5.57;2.20;;;15.60;99.90;;;;;;6525582;22;20452;-66
2024/04/12 00:08:46;;;;;;;3.00;2.33;;;15.60;99.90;;;;;;6525064;22;20574;-65
2024/04/12 00:11:16;;;;;;;4.03;2.07;;;15.60;99.90;;;;;;6525636;22;20875;-66
2024/04/12 00:13:46;;;;;;;4.40;2.33;;;15.60;99.90;;;;;;6525283;21;20778;-65
2024/04/12 00:16:16;;;;;;;4.30;2.13;;;15.50;99.90;;;;;;6528034;22;20452;-65
2024/04/12 00:18:46;;;;;;;1.87;1.60;;;15.60;99.90;;;;;;6528056;22;20460;-66
2024/04/12 00:21:12;;;;;;;6.90;2.53;;;15.50;99.90;;;;;;6527430;22;20908;-66
2024/04/12 00:23:41;;;;;;;5.83;2.30;;;15.50;99.90;;;;;;6527451;21;20479;-65
2024/04/12 00:26:11;;;;;;;5.43;2.33;;;15.50;99.90;;;;;;6526984;22;20456;-64
2024/04/12 00:28:42;;;;;;;2.73;2.50;;;15.50;99.90;;;;;;6527493;22;20467;-65
2024/04/12 00:31:13;;;;;;;2.83;2.00;;;15.50;99.90;;;;;;6527496;22;20460;-65
2024/04/12 00:33:42;;;;;;;3.13;1.57;;;15.40;99.90;;;;;;6526778;21;20456;-65
2024/04/12 00:36:08;;;;;;;11.90;2.03;;;15.50;99.90;;;;;;6526822;22;20460;-65
2024/04/12 00:38:38;;;;;;;6.27;1.97;;;15.50;99.90;;;;;;6526986;22;20772;-65
2024/04/12 00:41:11;;;;;;;3.00;2.00;;;15.40;99.90;;;;;;6527273;22;20773;-65
2024/04/12 00:43:48;;;;;;;6.13;2.50;;;15.40;99.90;;;;;;6527008;21;20504;-66
2024/04/12 00:46:17;;;;;;;3.50;2.70;;;15.40;99.90;;;;;;6527440;22;20451;-65
2024/04/12 00:48:46;;;;;;;4.33;2.57;;;15.40;99.90;;;;;;6527109;22;20586;-67
2024/04/12 00:51:17;;;;;;;3.57;2.53;;;15.40;99.90;;;;;;6527851;22;20941;-65
2024/04/12 00:53:48;;;;;;;12.53;2.23;;;15.40;99.90;;;;;;6527234;21;20511;-66
2024/04/12 00:56:15;;;;;;;4.27;2.40;;;15.40;99.90;;;;;;6526911;22;20505;-65
2024/04/12 00:58:47;;;;;;;4.77;2.63;;;15.30;99.90;;;;;;6526827;22;20456;-65
2024/04/12 01:01:17;;;;;;;3.67;2.30;;;15.30;99.90;;;;;;6526159;22;20453;-66
2024/04/12 01:03:53;;;;;;;5.00;1.93;;;15.30;99.90;;;;;;6526405;21;20476;-65
2024/04/12 01:06:22;;;;;;;3.60;2.40;;;15.30;99.90;;;;;;6526408;22;20460;-65
2024/04/12 01:08:52;;;;;;;6.93;2.13;;;15.30;99.90;;;;;;6526449;22;20453;-65
2024/04/12 01:11:20;;;;;;;5.03;2.53;;;15.40;99.90;;;;;;6525998;22;20452;-66
2024/04/12 01:13:52;;;;;;;3.23;2.00;;;15.40;99.90;;;;;;6525388;21;20508;-65
2024/04/12 01:16:19;;;;;;;6.80;3.33;;;15.30;99.90;;;;;;6526481;22;21041;-67
2024/04/12 01:18:48;;;;;;;7.20;3.10;;;15.40;99.90;;;;;;6525599;22;20945;-65
2024/04/12 01:21:14;;;;;;;4.80;3.17;;;15.40;99.90;;;;;;6525566;22;20773;-65
2024/04/12 01:23:48;;;;;;;6.83;3.13;;;15.30;99.90;;;;;;6525714;21;20532;-66
2024/04/12 01:26:17;;;;;;;10.07;3.50;;;15.30;99.90;;;;;;6526542;22;20468;-66
2024/04/12 01:28:48;;;;;;;7.87;4.23;;;15.30;99.90;;;;;;6526618;22;20513;-66
2024/04/12 01:31:15;;;;;;;5.23;2.50;;;15.30;99.90;;;;;;6527054;22;20449;-65
2024/04/12 01:33:48;;;;;;;5.00;3.17;;;15.30;99.90;;;;;;6526391;21;20500;-65
2024/04/12 01:39:11;;;;;;;5.07;2.27;;;15.30;99.90;;;;;;6574733;21;20550;-67
2024/04/12 01:41:48;;;;;;;3.53;2.57;;;15.30;99.90;;;;;;6583755;21;20591;-67
2024/04/12 01:47:03;;;;;;;7.00;2.40;;;15.30;99.90;;;;;;6531326;22;20961;-67
2024/04/12 01:49:43;;;;;;;4.20;2.43;;;15.20;99.90;;;;;;6531954;22;20448;-67
2024/04/12 01:52:25;;;;;;;3.00;2.70;;;15.20;99.90;;;;;;6532466;22;20456;-67
2024/04/12 01:55:05;;;;;;;5.60;1.90;;;15.30;99.90;;;;;;6520995;21;20472;-67
2024/04/12 01:57:47;;;;;;;3.60;1.97;;;15.30;99.90;;;;;;6487334;22;20989;-67
2024/04/12 02:00:24;;;;;;;7.67;3.50;;;15.30;99.90;;;;;;6532982;22;20521;-67
2024/04/12 02:03:05;;;;;;;4.57;1.87;;;15.30;99.90;;;;;;6533411;22;20797;-67
2024/04/12 02:05:32;;;;;;;3.37;2.17;;;15.30;99.90;;;;;;6487820;22;20965;-67
2024/04/12 02:08:16;;;;;;;3.30;2.10;;;15.20;99.90;;;;;;6488605;22;20561;-67
2024/04/12 02:10:48;;;;;;;4.33;2.40;;;15.20;99.90;;;;;;6487177;22;20502;-66
2024/04/12 02:13:22;;;;;;;7.00;3.10;;;15.20;99.90;;;;;;6531025;22;20509;-66
2024/04/12 02:15:52;;;;;;;3.43;2.40;;;15.30;99.90;;;;;;6531627;22;20492;-67
2024/04/12 02:21:10;;;;;;;4.97;2.17;;;15.20;99.90;;;;;;6527949;22;20766;-67
2024/04/12 02:23:38;;;;;;;4.63;2.50;;;15.20;99.90;;;;;;6508995;21;20517;-67
2024/04/12 02:29:04;;;;;;;2.93;1.80;;;15.30;99.90;;;;;;6531510;22;20457;-69
2024/04/12 02:31:35;;;;;;;3.30;2.17;;;15.30;99.90;;;;;;6530752;22;20491;-66
2024/04/12 02:34:09;;;;;;;5.57;2.80;;;15.30;99.90;;;;;;6530352;21;20472;-67
2024/04/12 02:36:50;;;;;;;4.47;2.13;;;15.20;99.90;;;;;;6530095;22;20497;-66
2024/04/12 02:39:23;;;;;;;2.63;2.00;;;15.20;99.90;;;;;;6529750;21;20460;-66
2024/04/12 02:41:54;;;;;;;3.20;2.23;;;15.20;99.90;;;;;;6485708;22;20520;-67
2024/04/12 02:47:19;;;;;;;3.57;2.60;;;15.20;99.90;;;;;;6530592;22;20461;-67
2024/04/12 02:49:49;;;;;;;5.70;2.60;;;15.20;99.90;;;;;;6531082;22;20785;-67
2024/04/12 02:52:21;;;;;;;3.20;1.93;;;15.20;99.90;;;;;;6485738;22;20494;-67
2024/04/12 02:54:51;;;;;;;4.53;2.27;;;15.20;99.90;;;;;;6530913;21;20469;-67
2024/04/12 02:57:35;;;;;;;2.60;2.10;;;15.20;99.90;;;;;;6531694;22;20460;-67
2024/04/12 03:00:21;;;;;;;4.53;3.07;;;15.10;99.90;;;;;;6530946;22;20502;-68
2024/04/12 03:02:55;;;;;;;4.40;2.60;;;15.20;99.90;;;;;;6530029;22;20520;-67
2024/04/12 03:05:32;;;;;;;4.20;2.63;;;15.10;99.90;;;;;;6530101;21;20848;-67
2024/04/12 03:08:17;;;;;;;7.70;3.10;;;15.10;99.90;;;;;;6530395;22;20460;-67
2024/04/12 03:11:20;;;;;;;4.10;3.13;;;15.10;99.90;;;;;;6484709;22;20441;-67
2024/04/12 03:14:06;;;;;;;3.43;2.40;;;15.00;99.90;;;;;;6529614;21;20507;-67
2024/04/12 03:17:00;;;;;;;3.17;2.40;;;15.00;99.90;;;;;;6529894;22;20512;-67
2024/04/12 03:19:27;;;;;;;3.53;2.37;;;15.00;99.90;;;;;;6527340;22;20517;-66
2024/04/12 03:24:45;;;;;;;4.30;2.70;;;15.00;99.90;;;;;;6529408;21;20484;-66
2024/04/12 03:27:18;;;;;;;6.47;2.47;;;15.00;99.90;;;;;;6530053;22;20460;-67
2024/04/12 03:33:02;;;;;;;3.83;2.43;;;15.00;99.90;;;;;;6531143;22;20595;-67
2024/04/12 03:35:48;;;;;;;7.43;2.87;;;14.90;99.90;;;;;;6531233;21;20476;-66
2024/04/12 03:38:29;;;;;;;3.27;2.40;;;14.90;99.90;;;;;;6532065;21;20512;-67
2024/04/12 03:41:02;;;;;;;8.13;2.43;;;14.90;99.90;;;;;;6530558;22;20448;-66
2024/04/12 03:43:48;;;;;;;4.50;2.63;;;14.90;99.90;;;;;;6531669;21;20501;-66
2024/04/12 03:46:31;;;;;;;4.13;2.60;;;14.80;99.90;;;;;;6532415;22;20629;-67
2024/04/12 03:49:28;;;;;;;4.10;2.50;;;14.80;99.90;;;;;;6494058;22;20508;-66
2024/04/12 03:52:00;;;;;;;4.60;3.00;;;14.80;99.90;;;;;;6526028;22;20468;-67
2024/04/12 03:57:09;;;;;;;6.00;3.00;;;14.90;99.90;;;;;;6595743;21;20592;-67
2024/04/12 03:59:36;;;;;;;5.33;3.40;;;14.90;99.90;;;;;;6638069;21;20481;-66
2024/04/12 04:02:07;;;;;;;6.17;3.83;;;14.90;99.90;;;;;;6638292;21;20528;-66
2024/04/12 04:04:44;;;;;;;6.00;4.60;;;14.80;99.90;;;;;;6609139;21;20504;-66
2024/04/12 04:07:14;;;;;;;6.97;4.27;;;14.90;99.90;;;;;;6586244;21;20502;-67
2024/04/12 04:09:47;;;;;;;5.33;4.20;;;14.90;99.90;;;;;;6585384;21;20463;-68
2024/04/12 04:12:16;;;;;;;6.03;4.00;;;14.90;99.90;;;;;;6585663;21;20515;-67
2024/04/12 04:14:47;;;;;;;8.13;4.07;;;14.90;99.90;;;;;;6584342;21;20515;-66
2024/04/12 04:17:30;;;;;;;8.40;3.87;;;14.80;99.90;;;;;;6585140;21;20569;-67
2024/04/12 04:20:05;;;;;;;5.23;3.50;;;14.70;99.90;;;;;;6585333;21;20516;-67
2024/04/12 04:22:49;;;;;;;7.60;5.10;;;14.70;99.90;;;;;;6585124;21;20458;-67
2024/04/12 04:25:19;;;;;;;8.60;3.77;;;14.80;99.90;;;;;;6584208;21;20584;-67
2024/04/12 04:27:48;;;;;;;4.20;3.40;;;14.80;99.90;;;;;;6585000;21;20808;-67
2024/04/12 04:30:18;;;;;;;6.40;3.90;;;14.80;99.90;;;;;;6584826;21;20562;-66
2024/04/12 04:32:47;;;;;;;5.67;3.97;;;14.80;99.90;;;;;;6584937;21;20514;-66
2024/04/12 04:35:18;;;;;;;3.60;3.13;;;14.80;99.90;;;;;;6585324;21;20466;-66
2024/04/12 04:37:47;;;;;;;8.67;4.20;;;14.80;99.90;;;;;;6589550;21;21047;-67
2024/04/12 04:40:16;;;;;;;4.87;3.30;;;14.70;99.90;;;;;;6584757;21;20507;-67
2024/04/12 04:42:45;;;;;;;4.43;3.87;;;14.80;99.90;;;;;;6584517;21;20510;-65
2024/04/12 04:45:17;;;;;;;14.97;3.50;;;14.80;99.90;;;;;;6584427;21;20527;-66
2024/04/12 04:47:46;;;;;;;6.60;4.40;;;14.80;99.90;;;;;;6584551;21;20522;-66
2024/04/12 04:50:17;;;;;;;7.03;4.10;;;14.70;99.90;;;;;;6582263;21;20761;-67
2024/04/12 04:52:46;;;;;;;4.80;3.23;;;14.70;99.90;;;;;;6583630;21;20570;-67
2024/04/12 04:55:14;;;;;;;5.87;3.53;;;14.80;99.90;;;;;;6583566;21;20466;-67
2024/04/12 04:57:43;;;;;;;7.13;4.37;;;15.00;99.90;;;;;;6583277;21;20841;-66
2024/04/12 05:00:18;;;;;;;8.17;4.27;;;14.80;99.90;;;;;;6583362;21;20507;-68
2024/04/12 05:02:49;;;;;;;9.87;3.33;;;14.80;99.90;;;;;;6583791;21;20527;-67
2024/04/12 05:05:23;;;;;;;8.10;3.70;;;14.90;99.90;;;;;;6583542;21;20772;-66
2024/04/12 05:07:55;;;;;;;6.40;3.83;;;14.80;99.90;;;;;;6584384;21;20451;-67
2024/04/12 05:10:33;;;;;;;5.73;3.90;;;14.90;99.90;;;;;;6584732;21;20498;-67
2024/04/12 05:13:20;;;;;;;6.37;3.97;;;14.80;99.90;;;;;;6585297;21;20812;-66
2024/04/12 05:15:49;;;;;;;4.03;3.23;;;14.10;99.90;;;;;;6585006;21;20792;-65
2024/04/12 05:18:18;;;;;;;5.47;3.40;;;14.90;99.90;;;;;;6585211;21;20451;-67
2024/04/12 05:20:51;;;;;;;5.23;3.37;;;15.00;99.90;;;;;;6585455;21;20447;-67
2024/04/12 05:23:20;;;;;;;7.23;4.17;;;15.00;99.90;;;;;;6584887;21;20835;-67
2024/04/12 05:25:47;;;;;;;6.23;3.50;;;15.10;99.90;;;;;;6585386;21;20444;-66
2024/04/12 05:28:19;;;;;;;5.80;4.00;;;15.10;99.90;;;;;;6585845;21;20498;-67
2024/04/12 05:30:49;;;;;;;7.60;4.77;;;15.10;99.90;;;;;;6584801;21;20455;-67
2024/04/12 05:33:19;;;;;;;8.20;4.40;;;15.10;99.90;;;;;;6584796;21;20539;-67
2024/04/12 05:35:48;;;;;;;5.63;4.43;;;15.10;99.90;;;;;;6584086;21;20495;-68
2024/04/12 05:38:20;;;;;;;15.30;4.17;;;15.20;99.90;;;;;;6586000;21;20447;-66
2024/04/12 05:40:52;;;;;;;7.13;3.70;;;15.20;99.90;;;;;;6583588;21;20534;-66
2024/04/12 05:43:24;;;;;;;5.70;3.93;;;15.20;99.90;;;;;;6584580;21;20447;-66
2024/04/12 05:45:53;;;;;;;7.47;4.90;;;15.10;99.90;;;;;;6584311;21;20552;-66
2024/04/12 05:48:22;;;;;;;10.30;5.40;;;15.20;99.90;;;;;;6583626;21;20524;-67
2024/04/12 05:50:55;;;;;;;5.57;4.20;;;15.30;99.90;;;;;;6584431;21;20447;-67
2024/04/12 05:53:29;;;;;;;6.47;4.50;;;15.20;99.90;;;;;;6584827;21;20499;-67
2024/04/12 05:58:46;;;;;;;8.87;4.60;;;15.30;99.90;;;;;;6581269;21;20463;-66
2024/04/12 06:01:16;;;;;;;7.63;5.20;;;15.40;99.90;;;;;;6584192;21;20463;-66
2024/04/12 06:03:42;;;;;;;9.63;4.87;;;15.40;99.90;;;;;;6583460;21;20785;-67
2024/04/12 06:06:15;;;;;;;8.67;5.53;;;15.40;99.90;;;;;;6584926;21;20462;-66
2024/04/12 06:08:45;;;;;;;9.10;5.00;;;15.40;99.90;;;;;;6583746;21;20586;-66
2024/04/12 06:11:17;;;;;;;7.87;4.73;;;15.50;99.90;;;;;;6586155;21;20776;-67
2024/04/12 06:13:45;;;;;;;7.73;4.90;;;15.40;99.90;;;;;;6582939;21;20462;-66
2024/04/12 06:16:15;;;;;;;6.83;4.90;;;15.40;99.90;;;;;;6583499;21;20494;-66
2024/04/12 06:18:41;;;;;;;8.10;5.00;;;15.50;99.90;;;;;;6582476;21;20493;-66
2024/04/12 06:21:10;;;;;;;9.63;4.53;;;15.50;99.90;;;;;;6582051;21;20455;-66
2024/04/12 06:23:39;;;;;;;9.80;6.07;;;15.50;99.90;;;;;;6581367;21;20479;-67
2024/04/12 06:26:08;;;;;;;11.40;5.37;;;15.50;99.90;;;;;;6581936;21;20561;-66
2024/04/12 06:28:37;;;;;;;8.00;7.20;;;15.50;99.90;;;;;;6582520;21;20538;-67
2024/04/12 06:31:08;;;;;;;7.33;5.40;;;15.60;99.90;;;;;;6582542;21;20452;-67
2024/04/12 06:33:34;;;;;;;7.70;5.70;;;15.50;99.90;;;;;;6576538;21;20511;-58
2024/04/12 06:36:11;;;;;;;8.10;4.50;;;15.50;99.90;;;;;;6576851;21;20519;-58
2024/04/12 06:38:40;;;;;;;6.60;4.73;;;15.50;99.90;;;;;;6578010;21;20216;-57
2024/04/12 06:41:10;;;;;;;8.87;4.60;;;15.50;99.90;;;;;;6577948;21;20519;-58
2024/04/12 06:43:37;;;;;;;10.73;5.63;;;15.60;99.90;;;;;;6576601;21;20532;-58
2024/04/12 06:46:11;;;;;;;6.40;4.13;;;15.70;99.90;;;;;;6576695;21;20455;-58
2024/04/12 06:48:40;;;;;;;7.03;4.70;;;15.70;99.90;;;;;;6577660;21;20450;-58
2024/04/12 06:51:11;;;;;;;6.80;4.23;;;15.80;99.90;;;;;;6577561;21;20499;-59
2024/04/12 06:53:44;;;;;;;8.83;4.03;;;15.70;99.90;;;;;;6577410;21;20503;-59
2024/04/12 06:56:15;;;;;;;8.40;5.20;;;15.70;99.90;;;;;;6577296;21;20454;-58
2024/04/12 06:58:43;;;;;;;11.73;5.17;;;15.70;99.90;;;;;;6577778;21;20519;-57
2024/04/12 07:01:12;;;;;;;7.37;5.60;;;15.70;99.90;;;;;;6574799;21;20955;-57
2024/04/12 07:03:40;;;;;;;6.63;4.97;;;15.60;99.90;;;;;;6575063;21;20833;-58
2024/04/12 07:06:13;;;;;;;19.57;8.27;;;15.60;99.90;;;;;;6576137;21;21052;-58
2024/04/12 07:08:49;;;;;;;9.03;6.33;;;15.60;99.90;;;;;;6574676;21;20542;-57
2024/04/12 07:11:18;;;;;;;13.53;5.30;;;15.50;99.90;;;;;;6576639;21;20455;-59
2024/04/12 07:13:49;;;;;;;11.43;4.80;;;15.60;99.90;;;;;;6574751;21;20467;-58
2024/04/12 07:16:19;;;;;;;7.50;5.20;;;15.60;99.90;;;;;;6576774;21;20564;-58
2024/04/12 07:18:45;;;;;;;8.60;5.20;;;15.60;99.90;;;;;;6571484;21;20459;-59
2024/04/12 07:21:22;;;;;;;7.00;4.67;;;15.70;99.90;;;;;;6575714;21;20522;-57
2024/04/12 07:23:51;;;;;;;7.83;4.97;;;15.70;99.90;;;;;;6575799;21;20941;-57
2024/04/12 07:26:24;;;;;;;9.93;4.97;;;15.70;99.90;;;;;;6577336;21;21139;-57
2024/04/12 07:28:57;;;;;;;6.83;4.80;;;15.70;99.90;;;;;;6576917;21;20515;-55
2024/04/12 07:31:27;;;;;;;10.70;5.97;;;15.80;99.90;;;;;;6578947;21;20934;-57
2024/04/12 07:33:54;;;;;;;9.00;4.87;;;15.80;99.90;;;;;;6578482;21;20467;-58
2024/04/12 07:39:01;;;;;;;10.93;4.27;;;15.90;99.90;;;;;;6576183;21;20535;-61
2024/04/12 07:41:27;;;;;;;7.47;4.43;;;15.90;99.90;;;;;;6577867;21;20770;-64
2024/04/12 07:43:56;;;;;;;8.87;5.10;;;15.80;99.90;;;;;;6562705;21;20478;-65
2024/04/12 07:46:27;;;;;;;8.67;5.83;;;15.80;99.90;;;;;;6524644;22;20501;-63
2024/04/12 07:48:57;;;;;;;8.03;5.63;;;15.90;99.90;;;;;;6524536;22;20572;-65
2024/04/12 07:51:27;;;;;;;6.13;4.80;;;16.00;99.90;;;;;;6524727;22;20818;-64
2024/04/12 07:53:55;;;;;;;9.30;4.97;;;16.10;99.90;;;;;;6524457;21;20542;-62
2024/04/12 07:56:24;;;;;;;11.73;5.40;;;16.30;99.90;;;;;;6525458;22;20504;-63
2024/04/12 07:59:01;;;;;;;18.03;5.97;;;16.40;99.90;;;;;;6524530;22;20969;-64
2024/04/12 08:01:27;;;;;;;9.57;5.73;;;16.40;99.90;;;;;;6524557;22;20464;-63
2024/04/12 08:04:05;;;;;;;9.47;5.90;;;16.50;99.90;;;;;;6524806;21;20517;-63
2024/04/12 08:06:36;;;;;;;7.57;5.20;;;16.50;99.90;;;;;;6526459;22;20459;-64
2024/04/12 08:09:20;;;;;;;7.97;5.80;;;16.60;99.90;;;;;;6526366;22;20546;-64
2024/04/12 08:11:59;;;;;;;7.67;5.27;;;16.70;99.90;;;;;;6525246;22;20949;-62
2024/04/12 08:14:26;;;;;;;11.63;5.97;;;16.80;99.90;;;;;;6524624;21;21024;-65
2024/04/12 08:16:56;;;;;;;6.10;4.30;;;16.90;99.90;;;;;;6525253;22;20456;-62
2024/04/12 08:19:38;;;;;;;11.10;5.47;;;17.00;99.90;;;;;;6524636;22;20452;-63
2024/04/12 08:22:07;;;;;;;8.40;5.50;;;17.00;99.90;;;;;;6524817;22;20512;-65
2024/04/12 08:24:33;;;;;;;12.23;5.77;;;17.00;99.90;;;;;;6524777;21;20510;-63
2024/04/12 08:27:04;;;;;;;7.10;5.00;;;17.00;99.90;;;;;;6524818;22;20468;-58
2024/04/12 08:29:32;;;;;;;9.73;5.13;;;17.00;99.90;;;;;;6525214;22;20464;-63
2024/04/12 08:32:11;;;;;;;9.13;6.10;;;17.10;99.90;;;;;;6525173;22;20785;-63
2024/04/12 08:34:44;;;;;;;11.83;6.00;;;17.10;99.90;;;;;;6523463;21;20535;-64
2024/04/12 08:37:16;;;;;;;8.53;6.13;;;17.10;99.90;;;;;;6525297;22;20465;-63
2024/04/12 08:39:43;;;;;;;11.50;7.37;;;17.10;99.90;;;;;;6525561;22;20547;-64
2024/04/12 08:42:15;;;;;;;8.03;6.33;;;17.20;99.90;;;;;;6525112;22;20468;-63
2024/04/12 08:44:42;;;;;;;9.90;6.63;;;17.20;99.90;;;;;;6524479;21;20515;-62
2024/04/12 08:47:32;;;;;;;8.83;6.77;;;17.20;99.90;;;;;;6524276;22;20556;-66
2024/04/12 08:50:03;;;;;;;8.17;5.87;;;17.20;99.90;;;;;;6524999;22;20506;-63
2024/04/12 08:52:43;;;;;;;8.50;5.90;;;17.10;99.90;;;;;;6525629;22;20998;-62
2024/04/12 08:55:13;;;;;;;10.80;6.27;;;17.10;99.90;;;;;;6524205;21;20504;-65
2024/04/12 08:57:47;;;;;;;8.20;5.80;;;17.10;99.90;;;;;;6525148;22;20505;-63
2024/04/12 09:00:18;;;;;;;10.03;6.80;;;17.20;99.90;;;;;;6524782;22;20472;-62
2024/04/12 09:02:51;;;;;;;10.30;6.70;;;17.20;99.90;;;;;;6524005;22;20523;-63
2024/04/12 09:05:22;;;;;;;13.53;7.27;;;17.20;99.90;;;;;;6523853;21;20603;-61
2024/04/12 09:07:55;;;;;;;13.00;6.80;;;17.30;99.90;;;;;;6524946;22;20579;-61
2024/04/12 09:10:21;;;;;;;10.93;6.60;;;17.30;99.90;;;;;;6524751;22;20460;-62
2024/04/12 09:12:53;;;;;;;12.00;7.00;;;17.40;99.90;;;;;;6524601;22;20456;-64
2024/04/12 09:15:27;;;;;;;11.70;7.13;;;17.40;99.90;;;;;;6524702;21;20501;-65
2024/04/12 09:18:01;;;;;;;11.97;7.77;;;17.50;99.90;;;;;;6524498;22;20464;-64
2024/04/12 09:20:31;;;;;;;17.77;8.33;;;17.50;99.90;;;;;;6525248;22;20491;-65
2024/04/12 09:23:13;;;;;;;33.23;20.13;;;17.50;99.90;;;;;;6523608;22;20588;-67
2024/04/12 09:25:41;;;;;;;15.40;10.60;;;17.50;99.90;;;;;;6523879;21;20583;-67
2024/04/12 09:28:13;;;;;;;14.73;10.10;;;17.50;99.90;;;;;;6524772;22;20829;-64
2024/04/12 09:33:31;;;;;;;10.40;7.20;;;17.40;99.90;;;;;;6528875;21;20559;-63
2024/04/12 09:36:06;;;;;;;12.90;7.53;;;17.50;99.90;;;;;;6524419;22;20509;-62
2024/04/12 09:38:33;;;;;;;11.80;7.00;;;17.50;99.90;;;;;;6524148;21;20459;-64
2024/04/12 09:41:13;;;;;;;19.20;7.93;;;17.50;99.90;;;;;;6524587;22;20580;-64
2024/04/12 09:43:47;;;;;;;11.90;6.83;;;17.50;99.90;;;;;;6524411;21;20513;-66
2024/04/12 09:46:23;;;;;;;10.20;6.57;;;17.50;99.90;;;;;;6524311;22;20822;-66
2024/04/12 10:39:44;;;;;;;8.40;5.33;;;17.70;99.90;;;;;;6525693;21;21080;-64
2024/04/12 10:42:14;;;;;;;9.33;5.80;;;17.70;99.90;;;;;;6521648;22;20933;-62
2024/04/12 10:44:46;;;;;;;12.70;6.00;;;17.60;99.90;;;;;;6522604;21;20517;-64
2024/04/12 10:47:20;;;;;;;8.17;5.47;;;17.60;99.90;;;;;;6522189;22;20524;-62
2024/04/12 10:49:50;;;;;;;7.93;5.53;;;17.60;99.90;;;;;;6523239;22;20519;-63
2024/04/12 10:52:28;;;;;;;8.07;5.10;;;17.70;99.90;;;;;;6522309;22;20472;-62
2024/04/12 10:54:55;;;;;;;9.00;5.40;;;17.70;99.90;;;;;;6523439;21;20483;-61
2024/04/12 10:57:24;;;;;;;9.57;4.97;;;17.80;99.90;;;;;;6523300;22;20769;-63
2024/04/12 10:59:51;;;;;;;10.67;5.90;;;17.80;99.90;;;;;;6522313;22;20894;-63
2024/04/12 11:02:22;;;;;;;8.97;5.00;;;18.00;99.90;;;;;;6522386;22;21206;-63
2024/04/12 11:05:05;;;;;;;9.63;5.47;;;18.10;99.90;;;;;;6521741;21;20771;-65
2024/04/12 11:07:34;;;;;;;7.10;4.77;;;18.10;99.90;;;;;;6522359;22;20467;-64
2024/04/12 11:10:03;;;;;;;8.13;4.53;;;18.10;99.90;;;;;;6523237;22;20461;-64
2024/04/12 11:12:40;;;;;;;7.13;4.90;;;18.10;99.90;;;;;;6522609;22;20460;-63
2024/04/12 11:31:06;;;;;;;8.00;5.20;;;18.10;99.90;;;;;;6522698;21;20774;-63
2024/04/12 11:31:52;;;;;;;7.53;6.10;;;18.90;99.90;;;;;;6517584;22;20501;-63
2024/04/12 11:34:19;;;;;;;6.67;4.70;;;18.90;99.90;;;;;;6519471;21;20472;-63
2024/04/12 11:36:53;;;;;;;8.23;4.03;;;19.10;99.90;;;;;;6523583;22;20501;-63
2024/04/12 11:39:25;;;;;;;8.03;5.70;;;19.20;99.90;;;;;;6522525;21;20880;-65
2024/04/12 11:41:55;;;;;;;6.00;4.30;;;19.30;99.90;;;;;;6523286;22;20461;-63
2024/04/12 11:44:21;;;;;;;6.53;4.30;;;19.30;99.90;;;;;;6524324;21;20470;-63
2024/04/12 11:46:55;;;;;;;8.00;4.70;;;19.40;99.90;;;;;;6524456;22;20514;-61
2024/04/12 11:49:27;;;;;;;7.23;5.33;;;19.40;99.90;;;;;;6525292;22;20459;-62
2024/04/12 11:51:59;;;;;;;10.43;6.27;;;19.40;99.90;;;;;;6523816;21;20509;-64
2024/04/12 11:54:29;;;;;;;6.57;4.90;;;19.40;99.90;;;;;;6524523;21;20873;-64
2024/04/12 11:56:55;;;;;;;6.00;5.03;;;19.40;99.90;;;;;;6525005;22;20450;-64
2024/04/12 11:59:27;;;;;;;6.10;4.40;;;19.40;99.90;;;;;;6525191;22;20507;-64
2024/04/12 12:01:54;;;;;;;7.87;5.00;;;19.30;99.90;;;;;;6525747;22;20513;-63
2024/04/12 12:04:23;;;;;;;5.37;4.10;;;19.30;99.90;;;;;;6524859;21;20787;-63
2024/04/12 12:06:49;;;;;;;4.10;3.70;;;19.50;99.90;;;;;;6524500;22;20453;-65
2024/04/12 12:09:21;;;;;;;10.70;5.00;;;19.60;99.90;;;;;;6525909;22;20525;-64
2024/04/12 12:11:49;;;;;;;7.13;5.30;;;19.80;99.90;;;;;;6526348;21;20465;-64
2024/04/12 12:14:17;;;;;;;8.40;4.63;;;19.90;99.90;;;;;;6525705;21;20790;-64
2024/04/12 12:16:44;;;;;;;4.83;3.60;;;19.90;99.90;;;;;;6523723;22;20452;-64
2024/04/12 12:19:13;;;;;;;8.20;5.30;;;19.90;99.90;;;;;;6522974;22;20857;-65
2024/04/12 12:21:40;;;;;;;10.57;5.03;;;20.00;99.90;;;;;;6524206;22;20457;-64
2024/04/12 12:24:10;;;;;;;8.23;4.73;;;20.10;99.90;;;;;;6523925;21;20536;-65
2024/04/12 12:26:39;;;;;;;5.07;4.00;;;20.10;99.90;;;;;;6524122;22;20525;-64
2024/04/12 12:29:08;;;;;;;9.83;4.47;;;20.20;99.90;;;;;;6525258;22;20457;-64
2024/04/12 12:31:34;;;;;;;6.47;5.00;;;20.30;99.90;;;;;;6522404;22;20607;-63
2024/04/12 12:34:04;;;;;;;6.80;4.90;;;20.50;99.90;;;;;;6524535;21;20487;-63
2024/04/12 12:36:30;;;;;;;5.63;4.13;;;20.60;99.90;;;;;;6526700;22;20770;-65
2024/04/12 12:39:00;;;;;;;4.97;3.80;;;20.70;99.90;;;;;;6526611;21;20456;-64
2024/04/12 12:41:27;;;;;;;5.70;4.40;;;20.70;99.90;;;;;;6526652;22;20604;-64
2024/04/12 12:44:00;;;;;;;5.90;4.83;;;20.80;99.90;;;;;;6525982;21;21023;-64
2024/04/12 12:46:26;;;;;;;6.57;4.90;;;20.90;99.90;;;;;;6526960;22;20531;-63
2024/04/12 12:48:55;;;;;;;5.00;4.47;;;20.90;99.90;;;;;;6526755;22;20466;-66
2024/04/12 12:51:26;;;;;;;6.17;4.67;;;20.90;99.90;;;;;;6525272;22;20572;-66
2024/04/12 12:53:55;;;;;;;7.20;4.67;;;20.70;99.90;;;;;;6525831;21;20984;-66
2024/04/12 12:56:21;;;;;;;5.43;4.27;;;20.90;99.90;;;;;;6526234;22;20453;-66
2024/04/12 12:59:01;;;;;;;5.80;4.90;;;20.90;99.90;;;;;;6527651;22;20831;-68
2024/04/12 13:01:34;;;;;;;8.93;4.97;;;21.00;99.90;;;;;;6526435;22;20520;-66
2024/04/12 13:04:05;;;;;;;7.73;4.30;;;21.00;99.90;;;;;;6526291;21;20478;-65
2024/04/12 13:06:33;;;;;;;7.57;5.03;;;21.00;99.90;;;;;;6527106;22;20476;-66
2024/04/12 13:09:03;;;;;;;4.43;3.93;;;21.00;99.90;;;;;;6526488;22;20459;-68
2024/04/12 13:11:29;;;;;;;6.43;4.30;;;21.00;99.90;;;;;;6526611;22;20456;-66
2024/04/12 13:14:02;;;;;;;7.70;3.90;;;20.90;99.90;;;;;;6525684;21;20960;-67
2024/04/12 13:16:28;;;;;;;6.43;3.77;;;20.90;99.90;;;;;;6526489;22;20644;-67
2024/04/12 13:19:00;;;;;;;4.80;4.00;;;20.80;99.90;;;;;;6525687;22;20452;-66
2024/04/12 13:21:29;;;;;;;6.70;4.50;;;20.70;99.90;;;;;;6525583;22;20893;-67
2024/04/12 13:23:59;;;;;;;5.60;4.17;;;20.70;99.90;;;;;;6525547;21;20531;-66
2024/04/12 13:26:31;;;;;;;5.40;3.77;;;20.70;99.90;;;;;;6526293;22;20573;-66
2024/04/12 13:29:04;;;;;;;4.70;3.60;;;20.80;99.90;;;;;;6526654;22;20804;-66
2024/04/12 13:31:32;;;;;;;6.27;3.87;;;20.90;99.90;;;;;;6526210;22;20459;-65
2024/04/12 13:34:01;;;;;;;4.70;3.70;;;20.90;99.90;;;;;;6525594;21;20866;-65
2024/04/12 13:36:29;;;;;;;3.33;2.70;;;21.00;99.90;;;;;;6526272;22;20475;-66
2024/04/12 13:38:59;;;;;;;5.00;3.23;;;21.00;99.90;;;;;;6526095;21;20484;-66
2024/04/12 13:41:26;;;;;;;5.20;3.20;;;21.00;99.90;;;;;;6526521;22;20507;-65
2024/04/12 13:43:58;;;;;;;5.37;2.53;;;21.00;99.90;;;;;;6525579;21;21081;-67
2024/04/12 13:52:00;;;;;;;3.87;2.80;;;21.00;99.90;;;;;;6530134;22;20502;-65
2024/04/12 13:54:27;;;;;;;5.53;2.70;;;21.00;99.90;;;;;;6525517;21;20480;-66
2024/04/12 13:56:57;;;;;;;3.60;2.97;;;21.00;99.90;;;;;;6525150;22;20537;-67
2024/04/12 13:59:23;;;;;;;4.10;2.40;;;20.90;99.90;;;;;;6525903;22;20464;-66
2024/04/12 14:01:55;;;;;;;2.87;2.00;;;20.90;99.90;;;;;;6525909;22;20453;-67
2024/04/12 14:04:26;;;;;;;2.50;2.30;;;20.90;99.90;;;;;;6525726;21;20565;-67
2024/04/12 14:06:55;;;;;;;2.30;2.10;;;20.90;99.90;;;;;;6525901;22;20533;-67
2024/04/12 14:09:23;;;;;;;3.73;2.57;;;20.90;99.90;;;;;;6525682;22;20449;-67
2024/04/12 14:11:52;;;;;;;2.80;2.40;;;20.90;99.90;;;;;;6525846;22;20462;-67
2024/04/12 14:14:20;;;;;;;3.23;2.30;;;21.00;99.90;;;;;;6525186;21;20475;-65
2024/04/12 14:16:51;;;;;;;3.60;1.70;;;21.00;99.90;;;;;;6524461;22;20463;-67
2024/04/12 14:19:20;;;;;;;5.07;2.20;;;21.10;99.90;;;;;;6524901;22;20511;-67
2024/04/12 14:21:51;;;;;;;4.70;2.30;;;21.10;99.90;;;;;;6525792;22;20541;-67
2024/04/12 14:27:01;;;;;;;3.07;2.30;;;21.30;99.90;;;;;;6523697;22;20463;-68
2024/04/12 14:29:27;;;;;;;3.07;2.10;;;21.30;99.90;;;;;;6525954;22;20525;-66
2024/04/12 14:31:57;;;;;;;2.97;2.50;;;21.30;99.90;;;;;;6525776;22;20463;-66
2024/04/12 14:34:29;;;;;;;4.57;2.70;;;21.20;99.90;;;;;;6524524;21;20893;-66
2024/04/12 14:36:56;;;;;;;3.23;2.50;;;21.20;99.90;;;;;;6525353;22;20462;-66
2024/04/12 14:39:28;;;;;;;2.50;2.30;;;21.20;99.90;;;;;;6525674;21;20538;-66
2024/04/12 14:41:55;;;;;;;3.87;2.67;;;21.10;99.90;;;;;;6525539;22;20505;-67
2024/04/12 14:44:24;;;;;;;4.63;2.77;;;21.10;99.90;;;;;;6525044;21;20518;-67
2024/04/12 14:46:50;;;;;;;4.07;2.70;;;21.10;99.90;;;;;;6525717;22;20447;-67
2024/04/12 14:49:18;;;;;;;4.13;2.57;;;21.10;99.90;;;;;;6525489;22;20467;-67
2024/04/12 14:51:47;;;;;;;3.83;2.90;;;21.10;99.90;;;;;;6525772;22;20825;-65